Language: 


Des rapports , des résumés tant et plus, au choix de chacun....


Données statistiques de la station
Quotidien Rapport Janvier 19, 2018 Unités:  les deux    Anglais   Métrique
« Précédent Jour
Suivant Jour »
Quotidien Hebdomadaire Mensuel Annuel Actuel
  Haut: Bas: Moyen:
Température: TemperatureC °F /  -17.8 °C -0.8 °F /  -18.2 °C 3.5 °F /  -15.8 °C
Pt de rosée: DewpointC °F /  -17.8 °C -2.0 °F /  -18.9 °C 1.1 °F /  -17.2 °C
Humidité: Humidity % 58 % 84 %
Vitesse du vent: WindSpeedKMH mph /  0 km/h - 6 mph /  9.7 km/h
Rafales: WindSpeedGustKMH mph /  0 km/h - -
Vent:- - WSW
Pression: PressurehPa in /  0 hPa 1003.9 in /  33992.1 hPa -
Précipitation: 0.0 in /  0 mm    
Historical Graphs
 
 
Données statistiques pour Janvier 19, 2018
Heure Température Point de rosée Pression Vent Vitesse du vent Refales Humidité Pluie (taux horaire)
TemperatureC °F /  -17.8 °C DewpointC °F /  -17.8 °C PressurehPa in /  0 hPa Calm     Humidity % HourlyPrecipMM in /  0 mm
00:01 4.5 °F /  -15.3 °C 4.0 °F /  -15.6 °C 1003.9 in /  33992.1 hPa West 11.9 mph /  19.2 km/h 14.8 mph /  23.8 km/h 93 % 0.0 in /  0 mm
00:06 4.4 °F /  -15.3 °C 3.0 °F /  -16.1 °C 1003.9 in /  33992.1 hPa West 14.8 mph /  23.8 km/h 15.8 mph /  25.4 km/h 93 % 0.0 in /  0 mm
00:11 4.5 °F /  -15.3 °C 3.0 °F /  -16.1 °C 1003.9 in /  33992.1 hPa West 6.9 mph /  11.1 km/h 19.1 mph /  30.7 km/h 92 % 0.0 in /  0 mm
00:16 4.5 °F /  -15.3 °C 3.0 °F /  -16.1 °C 1005.0 in /  34029.3 hPa WSW 9.7 mph /  15.6 km/h 19.1 mph /  30.7 km/h 92 % 0.0 in /  0 mm
00:21 4.4 °F /  -15.3 °C 3.0 °F /  -16.1 °C 1005.0 in /  34029.3 hPa WSW 17.7 mph /  28.5 km/h 17.7 mph /  28.5 km/h 91 % 0.0 in /  0 mm
00:26 4.5 °F /  -15.3 °C 3.0 °F /  -16.1 °C 1005.0 in /  34029.3 hPa WSW 17.7 mph /  28.5 km/h 19.5 mph /  31.4 km/h 91 % 0.0 in /  0 mm
00:32 4.5 °F /  -15.3 °C 3.0 °F /  -16.1 °C 1005.0 in /  34029.3 hPa WSW 15.1 mph /  24.3 km/h 19.5 mph /  31.4 km/h 91 % 0.0 in /  0 mm
00:37 4.5 °F /  -15.3 °C 3.0 °F /  -16.1 °C 1005.0 in /  34029.3 hPa West 6.9 mph /  11.1 km/h 20.6 mph /  33.2 km/h 91 % 0.0 in /  0 mm
00:42 4.4 °F /  -15.3 °C 3.0 °F /  -16.1 °C 1005.0 in /  34029.3 hPa West 12.6 mph /  20.3 km/h 20.6 mph /  33.2 km/h 90 % 0.0 in /  0 mm
00:47 4.4 °F /  -15.3 °C 3.0 °F /  -16.1 °C 1005.0 in /  34029.3 hPa WSW 11.9 mph /  19.2 km/h 17.7 mph /  28.5 km/h 89 % 0.0 in /  0 mm
00:52 4.4 °F /  -15.3 °C 3.0 °F /  -16.1 °C 1005.0 in /  34029.3 hPa West 16.3 mph /  26.2 km/h 17.7 mph /  28.5 km/h 89 % 0.0 in /  0 mm
00:57 4.4 °F /  -15.3 °C 3.0 °F /  -16.1 °C 1005.0 in /  34029.3 hPa West 11.1 mph /  17.9 km/h 16.9 mph /  27.2 km/h 89 % 0.0 in /  0 mm
01:02 4.4 °F /  -15.3 °C 3.0 °F /  -16.1 °C 1003.9 in /  33992.1 hPa West 15.4 mph /  24.8 km/h 15.8 mph /  25.4 km/h 89 % 0.0 in /  0 mm
01:07 4.4 °F /  -15.3 °C 3.0 °F /  -16.1 °C 1003.9 in /  33992.1 hPa West 12.6 mph /  20.3 km/h 15.4 mph /  24.8 km/h 88 % 0.0 in /  0 mm
01:12 4.4 °F /  -15.3 °C 3.0 °F /  -16.1 °C 1003.9 in /  33992.1 hPa WSW 14.0 mph /  22.5 km/h 15.8 mph /  25.4 km/h 88 % 0.0 in /  0 mm
01:17 4.3 °F /  -15.4 °C 3.0 °F /  -16.1 °C 1003.9 in /  33992.1 hPa WSW 13.7 mph /  22 km/h 15.8 mph /  25.4 km/h 88 % 0.0 in /  0 mm
01:22 4.2 °F /  -15.4 °C 3.0 °F /  -16.1 °C 1003.9 in /  33992.1 hPa West 12.2 mph /  19.6 km/h 15.8 mph /  25.4 km/h 87 % 0.0 in /  0 mm
01:27 4.2 °F /  -15.4 °C 3.0 °F /  -16.1 °C 1003.9 in /  33992.1 hPa West 9.7 mph /  15.6 km/h 12.2 mph /  19.6 km/h 87 % 0.0 in /  0 mm
01:32 4.1 °F /  -15.5 °C 2.0 °F /  -16.7 °C 1005.0 in /  34029.3 hPa West 10.1 mph /  16.3 km/h 12.6 mph /  20.3 km/h 87 % 0.0 in /  0 mm
01:37 4.1 °F /  -15.5 °C 2.0 °F /  -16.7 °C 1005.0 in /  34029.3 hPa West 4.7 mph /  7.6 km/h 13.0 mph /  20.9 km/h 87 % 0.0 in /  0 mm
01:42 4.1 °F /  -15.5 °C 2.0 °F /  -16.7 °C 1005.0 in /  34029.3 hPa WNW 9.7 mph /  15.6 km/h 17.7 mph /  28.5 km/h 87 % 0.0 in /  0 mm
01:47 4.1 °F /  -15.5 °C 2.0 °F /  -16.7 °C 1005.0 in /  34029.3 hPa West 10.1 mph /  16.3 km/h 17.7 mph /  28.5 km/h 87 % 0.0 in /  0 mm
01:52 4.1 °F /  -15.5 °C 2.0 °F /  -16.7 °C 1005.0 in /  34029.3 hPa West 12.2 mph /  19.6 km/h 13.7 mph /  22 km/h 87 % 0.0 in /  0 mm
01:57 4.1 °F /  -15.5 °C 2.0 °F /  -16.7 °C 1005.0 in /  34029.3 hPa WSW 10.1 mph /  16.3 km/h 16.9 mph /  27.2 km/h 87 % 0.0 in /  0 mm
02:02 4.1 °F /  -15.5 °C 2.0 °F /  -16.7 °C 1006.0 in /  34063.2 hPa WSW 7.9 mph /  12.7 km/h 16.9 mph /  27.2 km/h 87 % 0.0 in /  0 mm
02:07 4.0 °F /  -15.6 °C 2.0 °F /  -16.7 °C 1006.0 in /  34063.2 hPa West 10.1 mph /  16.3 km/h 13.7 mph /  22 km/h 87 % 0.0 in /  0 mm
02:12 4.0 °F /  -15.6 °C 2.0 °F /  -16.7 °C 1006.0 in /  34063.2 hPa WSW 12.2 mph /  19.6 km/h 16.6 mph /  26.7 km/h 87 % 0.0 in /  0 mm
02:17 4.0 °F /  -15.6 °C 2.0 °F /  -16.7 °C 1006.0 in /  34063.2 hPa West 10.1 mph /  16.3 km/h 16.6 mph /  26.7 km/h 87 % 0.0 in /  0 mm
02:22 3.8 °F /  -15.7 °C 2.0 °F /  -16.7 °C 1006.0 in /  34063.2 hPa West 9.7 mph /  15.6 km/h 14.0 mph /  22.5 km/h 87 % 0.0 in /  0 mm
02:27 3.8 °F /  -15.7 °C 2.0 °F /  -16.7 °C 1006.0 in /  34063.2 hPa WSW 10.5 mph /  16.9 km/h 14.0 mph /  22.5 km/h 87 % 0.0 in /  0 mm
02:32 3.7 °F /  -15.7 °C 2.0 °F /  -16.7 °C 1006.0 in /  34063.2 hPa West 9.0 mph /  14.5 km/h 13.7 mph /  22 km/h 87 % 0.0 in /  0 mm
02:38 3.6 °F /  -15.8 °C 2.0 °F /  -16.7 °C 1006.0 in /  34063.2 hPa WSW 10.1 mph /  16.3 km/h 14.0 mph /  22.5 km/h 87 % 0.0 in /  0 mm
02:43 3.5 °F /  -15.8 °C 2.0 °F /  -16.7 °C 1006.0 in /  34063.2 hPa West 10.1 mph /  16.3 km/h 14.0 mph /  22.5 km/h 87 % 0.0 in /  0 mm
02:48 3.4 °F /  -15.9 °C 2.0 °F /  -16.7 °C 1006.0 in /  34063.2 hPa WSW 12.2 mph /  19.6 km/h 13.0 mph /  20.9 km/h 87 % 0.0 in /  0 mm
02:53 3.3 °F /  -15.9 °C 2.0 °F /  -16.7 °C 1006.0 in /  34063.2 hPa West 9.3 mph /  15 km/h 12.6 mph /  20.3 km/h 87 % 0.0 in /  0 mm
02:58 3.2 °F /  -16 °C 2.0 °F /  -16.7 °C 1006.0 in /  34063.2 hPa WSW 9.3 mph /  15 km/h 12.6 mph /  20.3 km/h 87 % 0.0 in /  0 mm
03:03 3.1 °F /  -16.1 °C 1.0 °F /  -17.2 °C 1007.0 in /  34097 hPa Calm   10.5 mph /  16.9 km/h 87 % 0.0 in /  0 mm
03:08 3.0 °F /  -16.1 °C 1.0 °F /  -17.2 °C 1007.0 in /  34097 hPa WSW 7.6 mph /  12.2 km/h 12.2 mph /  19.6 km/h 87 % 0.0 in /  0 mm
03:13 2.9 °F /  -16.2 °C 1.0 °F /  -17.2 °C 1007.0 in /  34097 hPa WSW 9.3 mph /  15 km/h 12.2 mph /  19.6 km/h 88 % 0.0 in /  0 mm
03:18 2.9 °F /  -16.2 °C 1.0 °F /  -17.2 °C 1007.0 in /  34097 hPa West 9.7 mph /  15.6 km/h 12.2 mph /  19.6 km/h 88 % 0.0 in /  0 mm
03:23 2.8 °F /  -16.2 °C 1.0 °F /  -17.2 °C 1007.0 in /  34097 hPa WSW 9.0 mph /  14.5 km/h 12.2 mph /  19.6 km/h 88 % 0.0 in /  0 mm
03:28 2.6 °F /  -16.3 °C 1.0 °F /  -17.2 °C 1007.0 in /  34097 hPa WSW 4.3 mph /  6.9 km/h 11.1 mph /  17.9 km/h 88 % 0.0 in /  0 mm
03:33 2.6 °F /  -16.3 °C 1.0 °F /  -17.2 °C 1007.0 in /  34097 hPa West 10.1 mph /  16.3 km/h 11.1 mph /  17.9 km/h 88 % 0.0 in /  0 mm
03:38 2.5 °F /  -16.4 °C 1.0 °F /  -17.2 °C 1007.0 in /  34097 hPa West 6.4 mph /  10.3 km/h 10.8 mph /  17.4 km/h 89 % 0.0 in /  0 mm
03:43 2.5 °F /  -16.4 °C 1.0 °F /  -17.2 °C 1007.0 in /  34097 hPa Calm   10.5 mph /  16.9 km/h 89 % 0.0 in /  0 mm
03:48 2.4 °F /  -16.4 °C 1.0 °F /  -17.2 °C 1007.0 in /  34097 hPa West 9.3 mph /  15 km/h 10.5 mph /  16.9 km/h 89 % 0.0 in /  0 mm
03:53 2.2 °F /  -16.6 °C 1.0 °F /  -17.2 °C 1007.0 in /  34097 hPa Calm   10.5 mph /  16.9 km/h 89 % 0.0 in /  0 mm
03:58 2.0 °F /  -16.7 °C 1.0 °F /  -17.2 °C 1007.0 in /  34097 hPa WSW 5.8 mph /  9.3 km/h 10.1 mph /  16.3 km/h 88 % 0.0 in /  0 mm
04:03 1.9 °F /  -16.7 °C 1.0 °F /  -17.2 °C 1007.0 in /  34097 hPa Calm   9.3 mph /  15 km/h 89 % 0.0 in /  0 mm
04:08 1.7 °F /  -16.8 °C 0.0 °F /  -17.8 °C 1007.0 in /  34097 hPa Calm   7.6 mph /  12.2 km/h 89 % 0.0 in /  0 mm
04:13 1.6 °F /  -16.9 °C 0.0 °F /  -17.8 °C 1007.0 in /  34097 hPa Calm   6.9 mph /  11.1 km/h 89 % 0.0 in /  0 mm
04:19 1.6 °F /  -16.9 °C 0.0 °F /  -17.8 °C 1007.0 in /  34097 hPa Calm   6.4 mph /  10.3 km/h 89 % 0.0 in /  0 mm
04:24 1.2 °F /  -17.1 °C 0.0 °F /  -17.8 °C 1007.0 in /  34097 hPa Calm   5.8 mph /  9.3 km/h 89 % 0.0 in /  0 mm
04:29 1.1 °F /  -17.2 °C 0.0 °F /  -17.8 °C 1007.0 in /  34097 hPa Calm     89 % 0.0 in /  0 mm
04:34 1.1 °F /  -17.2 °C 0.0 °F /  -17.8 °C 1007.0 in /  34097 hPa Calm     90 % 0.0 in /  0 mm
04:39 1.0 °F /  -17.2 °C 0.0 °F /  -17.8 °C 1007.0 in /  34097 hPa Calm   4.0 mph /  6.4 km/h 90 % 0.0 in /  0 mm
04:44 1.0 °F /  -17.2 °C 0.0 °F /  -17.8 °C 1007.0 in /  34097 hPa Calm   4.0 mph /  6.4 km/h 91 % 0.0 in /  0 mm
04:49 0.9 °F /  -17.3 °C 0.0 °F /  -17.8 °C 1007.0 in /  34097 hPa Calm   4.0 mph /  6.4 km/h 91 % 0.0 in /  0 mm
04:54 1.0 °F /  -17.2 °C 0.0 °F /  -17.8 °C 1007.0 in /  34097 hPa Calm   3.2 mph /  5.1 km/h 92 % 0.0 in /  0 mm
04:59 1.0 °F /  -17.2 °C 0.0 °F /  -17.8 °C 1007.0 in /  34097 hPa Calm     92 % 0.0 in /  0 mm
05:04 1.0 °F /  -17.2 °C 0.0 °F /  -17.8 °C 1007.0 in /  34097 hPa Calm     93 % 0.0 in /  0 mm
05:09 1.0 °F /  -17.2 °C 0.0 °F /  -17.8 °C 1007.0 in /  34097 hPa Calm   1.4 mph /  2.3 km/h 93 % 0.0 in /  0 mm
05:14 1.0 °F /  -17.2 °C 0.0 °F /  -17.8 °C 1006.0 in /  34063.2 hPa Calm   2.1 mph /  3.4 km/h 93 % 0.0 in /  0 mm
05:19 0.9 °F /  -17.3 °C 0.0 °F /  -17.8 °C 1006.0 in /  34063.2 hPa Calm   2.1 mph /  3.4 km/h 94 % 0.0 in /  0 mm
05:24 0.9 °F /  -17.3 °C 0.0 °F /  -17.8 °C 1006.0 in /  34063.2 hPa Calm     94 % 0.0 in /  0 mm
05:29 0.8 °F /  -17.3 °C 0.0 °F /  -17.8 °C 1007.0 in /  34097 hPa Calm   4.7 mph /  7.6 km/h 94 % 0.0 in /  0 mm
05:34 0.7 °F /  -17.4 °C 0.0 °F /  -17.8 °C 1007.0 in /  34097 hPa Calm   4.7 mph /  7.6 km/h 94 % 0.0 in /  0 mm
05:39 0.7 °F /  -17.4 °C 0.0 °F /  -17.8 °C 1007.0 in /  34097 hPa WSW 5.8 mph /  9.3 km/h 6.9 mph /  11.1 km/h 94 % 0.0 in /  0 mm
05:44 0.6 °F /  -17.4 °C 0.0 °F /  -17.8 °C 1007.0 in /  34097 hPa Calm   6.9 mph /  11.1 km/h 93 % 0.0 in /  0 mm
05:49 0.7 °F /  -17.4 °C 0.0 °F /  -17.8 °C 1007.0 in /  34097 hPa Calm   6.9 mph /  11.1 km/h 94 % 0.0 in /  0 mm
05:54 0.9 °F /  -17.3 °C 0.0 °F /  -17.8 °C 1007.0 in /  34097 hPa Calm   6.9 mph /  11.1 km/h 94 % 0.0 in /  0 mm
06:00 1.0 °F /  -17.2 °C 1.0 °F /  -17.2 °C 1007.0 in /  34097 hPa Calm   5.5 mph /  8.9 km/h 95 % 0.0 in /  0 mm
06:05 1.0 °F /  -17.2 °C 1.0 °F /  -17.2 °C 1007.0 in /  34097 hPa Calm   6.1 mph /  9.8 km/h 95 % 0.0 in /  0 mm
06:10 1.0 °F /  -17.2 °C 1.0 °F /  -17.2 °C 1007.0 in /  34097 hPa Calm   6.1 mph /  9.8 km/h 95 % 0.0 in /  0 mm
06:15 0.9 °F /  -17.3 °C 1.0 °F /  -17.2 °C 1007.0 in /  34097 hPa Calm   4.3 mph /  6.9 km/h 95 % 0.0 in /  0 mm
06:20 0.7 °F /  -17.4 °C 0.0 °F /  -17.8 °C 1007.0 in /  34097 hPa Calm   4.3 mph /  6.9 km/h 95 % 0.0 in /  0 mm
06:25 0.6 °F /  -17.4 °C 0.0 °F /  -17.8 °C 1007.0 in /  34097 hPa Calm     94 % 0.0 in /  0 mm
06:30 0.5 °F /  -17.5 °C 0.0 °F /  -17.8 °C 1007.0 in /  34097 hPa Calm     94 % 0.0 in /  0 mm
06:35 0.3 °F /  -17.6 °C 0.0 °F /  -17.8 °C 1007.0 in /  34097 hPa WSW 3.2 mph /  5.1 km/h 3.2 mph /  5.1 km/h 93 % 0.0 in /  0 mm
06:40 0.1 °F /  -17.7 °C -1.0 °F /  -18.3 °C 1007.0 in /  34097 hPa Calm   3.2 mph /  5.1 km/h 93 % 0.0 in /  0 mm
06:45 0.0 °F /  -17.8 °C -2.0 °F /  -18.9 °C 1007.0 in /  34097 hPa Calm     93 % 0.0 in /  0 mm
06:50 -0.1 °F /  -17.8 °C -2.0 °F /  -18.9 °C 1007.0 in /  34097 hPa Calm     93 % 0.0 in /  0 mm
06:55 -0.2 °F /  -17.9 °C -2.0 °F /  -18.9 °C 1007.0 in /  34097 hPa Calm     94 % 0.0 in /  0 mm
07:00 -0.2 °F /  -17.9 °C -2.0 °F /  -18.9 °C 1007.0 in /  34097 hPa Calm     94 % 0.0 in /  0 mm
07:05 0.0 °F /  -17.8 °C -1.0 °F /  -18.3 °C 1007.0 in /  34097 hPa Calm     95 % 0.0 in /  0 mm
07:10 0.1 °F /  -17.7 °C 0.0 °F /  -17.8 °C 1007.0 in /  34097 hPa Calm     96 % 0.0 in /  0 mm
07:15 0.1 °F /  -17.7 °C 0.0 °F /  -17.8 °C 1007.0 in /  34097 hPa Calm     96 % 0.0 in /  0 mm
07:20 -0.1 °F /  -17.8 °C -1.0 °F /  -18.3 °C 1007.0 in /  34097 hPa Calm     96 % 0.0 in /  0 mm
07:25 -0.3 °F /  -17.9 °C -2.0 °F /  -18.9 °C 1007.0 in /  34097 hPa Calm     95 % 0.0 in /  0 mm
07:30 -0.3 °F /  -17.9 °C -2.0 °F /  -18.9 °C 1008.0 in /  34130.9 hPa Calm     95 % 0.0 in /  0 mm
07:36 -0.1 °F /  -17.8 °C -1.0 °F /  -18.3 °C 1008.0 in /  34130.9 hPa Calm     96 % 0.0 in /  0 mm
07:41 -0.1 °F /  -17.8 °C -1.0 °F /  -18.3 °C 1008.0 in /  34130.9 hPa Calm     96 % 0.0 in /  0 mm
07:46 -0.1 °F /  -17.8 °C -1.0 °F /  -18.3 °C 1008.0 in /  34130.9 hPa Calm     97 % 0.0 in /  0 mm
07:51 -0.1 °F /  -17.8 °C -1.0 °F /  -18.3 °C 1008.0 in /  34130.9 hPa Calm     97 % 0.0 in /  0 mm
07:56 -0.3 °F /  -17.9 °C -1.0 °F /  -18.3 °C 1008.0 in /  34130.9 hPa Calm     97 % 0.0 in /  0 mm
08:01 -0.4 °F /  -18 °C -1.0 °F /  -18.3 °C 1009.0 in /  34164.7 hPa Calm     96 % 0.0 in /  0 mm
08:06 -0.5 °F /  -18.1 °C -2.0 °F /  -18.9 °C 1009.0 in /  34164.7 hPa Calm     96 % 0.0 in /  0 mm
08:11 -0.6 °F /  -18.1 °C -2.0 °F /  -18.9 °C 1009.0 in /  34164.7 hPa Calm     96 % 0.0 in /  0 mm
08:16 -0.6 °F /  -18.1 °C -2.0 °F /  -18.9 °C 1008.0 in /  34130.9 hPa Calm   3.5 mph /  5.6 km/h 96 % 0.0 in /  0 mm
08:21 -0.7 °F /  -18.2 °C -2.0 °F /  -18.9 °C 1008.0 in /  34130.9 hPa Calm   3.5 mph /  5.6 km/h 96 % 0.0 in /  0 mm
08:26 -0.7 °F /  -18.2 °C -2.0 °F /  -18.9 °C 1008.0 in /  34130.9 hPa Calm     97 % 0.0 in /  0 mm
08:31 -0.7 °F /  -18.2 °C -2.0 °F /  -18.9 °C 1009.0 in /  34164.7 hPa Calm     97 % 0.0 in /  0 mm
08:36 -0.7 °F /  -18.2 °C -2.0 °F /  -18.9 °C 1009.0 in /  34164.7 hPa Calm     97 % 0.0 in /  0 mm
08:41 -0.7 °F /  -18.2 °C -2.0 °F /  -18.9 °C 1009.0 in /  34164.7 hPa Calm     97 % 0.0 in /  0 mm
08:46 -0.7 °F /  -18.2 °C -2.0 °F /  -18.9 °C 1009.0 in /  34164.7 hPa Calm     97 % 0.0 in /  0 mm
08:51 -0.8 °F /  -18.2 °C -2.0 °F /  -18.9 °C 1009.0 in /  34164.7 hPa Calm   5.0 mph /  8 km/h 97 % 0.0 in /  0 mm
08:57 -0.7 °F /  -18.2 °C -2.0 °F /  -18.9 °C 1009.0 in /  34164.7 hPa Calm   5.0 mph /  8 km/h 97 % 0.0 in /  0 mm
09:02 -0.7 °F /  -18.2 °C -1.0 °F /  -18.3 °C 1009.0 in /  34164.7 hPa Calm     98 % 0.0 in /  0 mm
09:07 -0.8 °F /  -18.2 °C -2.0 °F /  -18.9 °C 1009.0 in /  34164.7 hPa Calm     98 % 0.0 in /  0 mm
09:12 -0.8 °F /  -18.2 °C -2.0 °F /  -18.9 °C 1009.0 in /  34164.7 hPa Calm     98 % 0.0 in /  0 mm
09:17 -0.5 °F /  -18.1 °C -1.0 °F /  -18.3 °C 1008.0 in /  34130.9 hPa Calm   4.7 mph /  7.6 km/h 98 % 0.0 in /  0 mm
09:22 -0.1 °F /  -17.8 °C -1.0 °F /  -18.3 °C 1008.0 in /  34130.9 hPa Calm   4.7 mph /  7.6 km/h 98 % 0.0 in /  0 mm
09:27 0.1 °F /  -17.7 °C 0.0 °F /  -17.8 °C 1008.0 in /  34130.9 hPa Calm   4.0 mph /  6.4 km/h 98 % 0.0 in /  0 mm
09:32 0.2 °F /  -17.7 °C 0.0 °F /  -17.8 °C 1009.0 in /  34164.7 hPa Calm   4.3 mph /  6.9 km/h 98 % 0.0 in /  0 mm
09:37 0.6 °F /  -17.4 °C 1.0 °F /  -17.2 °C 1009.0 in /  34164.7 hPa Calm   4.3 mph /  6.9 km/h 98 % 0.0 in /  0 mm
09:42 0.6 °F /  -17.4 °C 1.0 °F /  -17.2 °C 1009.0 in /  34164.7 hPa West 1.4 mph /  2.3 km/h 6.4 mph /  10.3 km/h 98 % 0.0 in /  0 mm
09:47 1.0 °F /  -17.2 °C 1.0 °F /  -17.2 °C 1009.0 in /  34164.7 hPa Calm   6.9 mph /  11.1 km/h 98 % 0.0 in /  0 mm
09:52 1.2 °F /  -17.1 °C 1.0 °F /  -17.2 °C 1009.0 in /  34164.7 hPa Calm   6.9 mph /  11.1 km/h 98 % 0.0 in /  0 mm
09:57 1.3 °F /  -17.1 °C 1.0 °F /  -17.2 °C 1009.0 in /  34164.7 hPa WSW 7.9 mph /  12.7 km/h 7.9 mph /  12.7 km/h 98 % 0.0 in /  0 mm
10:02 1.3 °F /  -17.1 °C 1.0 °F /  -17.2 °C 1009.0 in /  34164.7 hPa WSW 7.6 mph /  12.2 km/h 9.0 mph /  14.5 km/h 98 % 0.0 in /  0 mm
10:07 1.9 °F /  -16.7 °C 2.0 °F /  -16.7 °C 1009.0 in /  34164.7 hPa Calm   9.0 mph /  14.5 km/h 98 % 0.0 in /  0 mm
10:12 2.1 °F /  -16.6 °C 2.0 °F /  -16.7 °C 1009.0 in /  34164.7 hPa West 1.8 mph /  2.9 km/h 6.9 mph /  11.1 km/h 98 % 0.0 in /  0 mm
10:17 2.3 °F /  -16.5 °C 3.0 °F /  -16.1 °C 1009.0 in /  34164.7 hPa WSW 7.9 mph /  12.7 km/h 7.9 mph /  12.7 km/h 98 % 0.0 in /  0 mm
10:22 2.5 °F /  -16.4 °C 3.0 °F /  -16.1 °C 1009.0 in /  34164.7 hPa Calm   7.9 mph /  12.7 km/h 98 % 0.0 in /  0 mm
10:27 2.6 °F /  -16.3 °C 3.0 °F /  -16.1 °C 1009.0 in /  34164.7 hPa Calm   7.9 mph /  12.7 km/h 98 % 0.0 in /  0 mm
10:32 2.6 °F /  -16.3 °C 3.0 °F /  -16.1 °C 1009.0 in /  34164.7 hPa WSW 2.1 mph /  3.4 km/h 7.9 mph /  12.7 km/h 98 % 0.0 in /  0 mm
10:37 3.1 °F /  -16.1 °C 3.0 °F /  -16.1 °C 1009.0 in /  34164.7 hPa WSW 6.1 mph /  9.8 km/h 9.7 mph /  15.6 km/h 98 % 0.0 in /  0 mm
10:42 3.6 °F /  -15.8 °C 4.0 °F /  -15.6 °C 1009.0 in /  34164.7 hPa WSW 9.3 mph /  15 km/h 10.5 mph /  16.9 km/h 98 % 0.0 in /  0 mm
10:48 3.9 °F /  -15.6 °C 4.0 °F /  -15.6 °C 1009.0 in /  34164.7 hPa WSW 11.1 mph /  17.9 km/h 12.2 mph /  19.6 km/h 98 % 0.0 in /  0 mm
10:53 4.2 °F /  -15.4 °C 4.0 °F /  -15.6 °C 1009.0 in /  34164.7 hPa WSW 11.1 mph /  17.9 km/h 12.2 mph /  19.6 km/h 98 % 0.0 in /  0 mm
10:58 4.4 °F /  -15.3 °C 4.0 °F /  -15.6 °C 1009.0 in /  34164.7 hPa WSW 9.0 mph /  14.5 km/h 13.7 mph /  22 km/h 98 % 0.0 in /  0 mm
11:03 4.7 °F /  -15.2 °C 5.0 °F /  -15 °C 1009.0 in /  34164.7 hPa WSW 9.3 mph /  15 km/h 13.7 mph /  22 km/h 98 % 0.0 in /  0 mm
11:08 5.0 °F /  -15 °C 5.0 °F /  -15 °C 1009.0 in /  34164.7 hPa WSW 6.9 mph /  11.1 km/h 12.6 mph /  20.3 km/h 97 % 0.0 in /  0 mm
11:13 5.2 °F /  -14.9 °C 5.0 °F /  -15 °C 1009.0 in /  34164.7 hPa WSW 7.9 mph /  12.7 km/h 12.6 mph /  20.3 km/h 96 % 0.0 in /  0 mm
11:18 5.5 °F /  -14.7 °C 5.0 °F /  -15 °C 1009.0 in /  34164.7 hPa WSW 10.1 mph /  16.3 km/h 10.5 mph /  16.9 km/h 95 % 0.0 in /  0 mm
11:23 5.6 °F /  -14.7 °C 5.0 °F /  -15 °C 1009.0 in /  34164.7 hPa SW 6.9 mph /  11.1 km/h 13.0 mph /  20.9 km/h 94 % 0.0 in /  0 mm
11:28 5.8 °F /  -14.6 °C 5.0 °F /  -15 °C 1009.0 in /  34164.7 hPa WSW 2.1 mph /  3.4 km/h 13.0 mph /  20.9 km/h 92 % 0.0 in /  0 mm
11:33 5.8 °F /  -14.6 °C 5.0 °F /  -15 °C 1010.0 in /  34198.6 hPa WSW 9.3 mph /  15 km/h 12.2 mph /  19.6 km/h 92 % 0.0 in /  0 mm
11:38 6.0 °F /  -14.4 °C 5.0 °F /  -15 °C 1010.0 in /  34198.6 hPa WSW 10.5 mph /  16.9 km/h 13.7 mph /  22 km/h 89 % 0.0 in /  0 mm
11:43 6.0 °F /  -14.4 °C 5.0 °F /  -15 °C 1010.0 in /  34198.6 hPa WSW 15.4 mph /  24.8 km/h 18.0 mph /  29 km/h 89 % 0.0 in /  0 mm
11:48 6.0 °F /  -14.4 °C 5.0 °F /  -15 °C 1010.0 in /  34198.6 hPa WSW 14.0 mph /  22.5 km/h 18.0 mph /  29 km/h 89 % 0.0 in /  0 mm
11:53 6.3 °F /  -14.3 °C 4.0 °F /  -15.6 °C 1010.0 in /  34198.6 hPa WSW 12.6 mph /  20.3 km/h 16.3 mph /  26.2 km/h 84 % 0.0 in /  0 mm
11:58 6.4 °F /  -14.2 °C 4.0 °F /  -15.6 °C 1010.0 in /  34198.6 hPa WSW 10.1 mph /  16.3 km/h 15.4 mph /  24.8 km/h 83 % 0.0 in /  0 mm
12:03 6.5 °F /  -14.2 °C 4.0 °F /  -15.6 °C 1010.0 in /  34198.6 hPa SW 11.9 mph /  19.2 km/h 15.4 mph /  24.8 km/h 83 % 0.0 in /  0 mm
12:08 6.5 °F /  -14.2 °C 4.0 °F /  -15.6 °C 1010.0 in /  34198.6 hPa WSW 9.0 mph /  14.5 km/h 13.0 mph /  20.9 km/h 83 % 0.0 in /  0 mm
12:13 7.0 °F /  -13.9 °C 4.0 °F /  -15.6 °C 1010.0 in /  34198.6 hPa WSW 13.7 mph /  22 km/h 16.6 mph /  26.7 km/h 81 % 0.0 in /  0 mm
12:18 7.0 °F /  -13.9 °C 4.0 °F /  -15.6 °C 1010.0 in /  34198.6 hPa WSW 12.6 mph /  20.3 km/h 16.6 mph /  26.7 km/h 81 % 0.0 in /  0 mm
12:23 7.3 °F /  -13.7 °C 4.0 °F /  -15.6 °C 1010.0 in /  34198.6 hPa WSW 15.8 mph /  25.4 km/h 16.9 mph /  27.2 km/h 79 % 0.0 in /  0 mm
12:28 7.3 °F /  -13.7 °C 4.0 °F /  -15.6 °C 1009.0 in /  34164.7 hPa WSW 23.3 mph /  37.5 km/h 23.3 mph /  37.5 km/h 77 % 0.0 in /  0 mm
12:33 7.4 °F /  -13.7 °C 4.0 °F /  -15.6 °C 1009.0 in /  34164.7 hPa WSW 12.6 mph /  20.3 km/h 23.3 mph /  37.5 km/h 77 % 0.0 in /  0 mm
12:38 7.4 °F /  -13.7 °C 4.0 °F /  -15.6 °C 1009.0 in /  34164.7 hPa WSW 14.0 mph /  22.5 km/h 20.1 mph /  32.3 km/h 77 % 0.0 in /  0 mm
12:43 7.4 °F /  -13.7 °C 4.0 °F /  -15.6 °C 1010.0 in /  34198.6 hPa WSW 12.6 mph /  20.3 km/h 21.6 mph /  34.8 km/h 77 % 0.0 in /  0 mm
12:48 7.4 °F /  -13.7 °C 4.0 °F /  -15.6 °C 1010.0 in /  34198.6 hPa WSW 13.0 mph /  20.9 km/h 21.6 mph /  34.8 km/h 77 % 0.0 in /  0 mm
12:54 7.7 °F /  -13.5 °C 4.0 °F /  -15.6 °C 1010.0 in /  34198.6 hPa West 13.7 mph /  22 km/h 17.7 mph /  28.5 km/h 75 % 0.0 in /  0 mm
12:59 7.7 °F /  -13.5 °C 4.0 °F /  -15.6 °C 1009.0 in /  34164.7 hPa WSW 14.0 mph /  22.5 km/h 17.7 mph /  28.5 km/h 75 % 0.0 in /  0 mm
13:04 7.7 °F /  -13.5 °C 4.0 °F /  -15.6 °C 1009.0 in /  34164.7 hPa WSW 12.2 mph /  19.6 km/h 19.8 mph /  31.9 km/h 75 % 0.0 in /  0 mm
13:09 8.0 °F /  -13.3 °C 4.0 °F /  -15.6 °C 1009.0 in /  34164.7 hPa WSW 12.2 mph /  19.6 km/h 24.5 mph /  39.4 km/h 73 % 0.0 in /  0 mm
13:14 7.7 °F /  -13.5 °C 3.0 °F /  -16.1 °C 1009.0 in /  34164.7 hPa WSW 17.7 mph /  28.5 km/h 24.5 mph /  39.4 km/h 73 % 0.0 in /  0 mm
13:19 7.7 °F /  -13.5 °C 3.0 °F /  -16.1 °C 1009.0 in /  34164.7 hPa WSW 16.6 mph /  26.7 km/h 20.9 mph /  33.6 km/h 73 % 0.0 in /  0 mm
13:24 7.7 °F /  -13.5 °C 3.0 °F /  -16.1 °C 1009.0 in /  34164.7 hPa WSW 10.1 mph /  16.3 km/h 20.9 mph /  33.6 km/h 73 % 0.0 in /  0 mm
13:29 7.7 °F /  -13.5 °C 3.0 °F /  -16.1 °C 1009.0 in /  34164.7 hPa WSW 20.9 mph /  33.6 km/h 23.8 mph /  38.3 km/h 73 % 0.0 in /  0 mm
13:34 7.7 °F /  -13.5 °C 3.0 °F /  -16.1 °C 1009.0 in /  34164.7 hPa WSW 12.2 mph /  19.6 km/h 23.8 mph /  38.3 km/h 73 % 0.0 in /  0 mm
13:39 7.7 °F /  -13.5 °C 3.0 °F /  -16.1 °C 1009.0 in /  34164.7 hPa WSW 16.9 mph /  27.2 km/h 23.3 mph /  37.5 km/h 73 % 0.0 in /  0 mm
13:44 7.7 °F /  -13.5 °C 3.0 °F /  -16.1 °C 1009.0 in /  34164.7 hPa WSW 12.6 mph /  20.3 km/h 22.7 mph /  36.5 km/h 73 % 0.0 in /  0 mm
13:49 7.7 °F /  -13.5 °C 4.0 °F /  -15.6 °C 1009.0 in /  34164.7 hPa West 12.2 mph /  19.6 km/h 20.1 mph /  32.3 km/h 75 % 0.0 in /  0 mm
13:54 7.7 °F /  -13.5 °C 4.0 °F /  -15.6 °C 1009.0 in /  34164.7 hPa West 14.0 mph /  22.5 km/h 20.1 mph /  32.3 km/h 75 % 0.0 in /  0 mm
13:59 7.7 °F /  -13.5 °C 4.0 °F /  -15.6 °C 1009.0 in /  34164.7 hPa WSW 12.2 mph /  19.6 km/h 23.3 mph /  37.5 km/h 75 % 0.0 in /  0 mm
14:04 7.7 °F /  -13.5 °C 4.0 °F /  -15.6 °C 1009.0 in /  34164.7 hPa WSW 16.9 mph /  27.2 km/h 23.3 mph /  37.5 km/h 75 % 0.0 in /  0 mm
14:09 7.7 °F /  -13.5 °C 4.0 °F /  -15.6 °C 1009.0 in /  34164.7 hPa WSW 16.3 mph /  26.2 km/h 20.9 mph /  33.6 km/h 75 % 0.0 in /  0 mm
14:14 7.6 °F /  -13.6 °C 3.0 °F /  -16.1 °C 1009.0 in /  34164.7 hPa WSW 9.7 mph /  15.6 km/h 19.1 mph /  30.7 km/h 74 % 0.0 in /  0 mm
14:19 8.0 °F /  -13.3 °C 4.0 °F /  -15.6 °C 1009.0 in /  34164.7 hPa WSW 14.0 mph /  22.5 km/h 16.6 mph /  26.7 km/h 72 % 0.0 in /  0 mm
14:24 8.0 °F /  -13.3 °C 4.0 °F /  -15.6 °C 1009.0 in /  34164.7 hPa WNW 9.7 mph /  15.6 km/h 17.7 mph /  28.5 km/h 72 % 0.0 in /  0 mm
14:29 8.0 °F /  -13.3 °C 4.0 °F /  -15.6 °C 1008.0 in /  34130.9 hPa West 12.6 mph /  20.3 km/h 20.6 mph /  33.2 km/h 72 % 0.0 in /  0 mm
14:35 8.0 °F /  -13.3 °C 4.0 °F /  -15.6 °C 1008.0 in /  34130.9 hPa WSW 13.0 mph /  20.9 km/h 28.0 mph /  45.1 km/h 72 % 0.0 in /  0 mm
14:40 8.0 °F /  -13.3 °C 4.0 °F /  -15.6 °C 1008.0 in /  34130.9 hPa West 25.3 mph /  40.7 km/h 28.0 mph /  45.1 km/h 72 % 0.0 in /  0 mm
14:45 8.0 °F /  -13.3 °C 4.0 °F /  -15.6 °C 1009.0 in /  34164.7 hPa West 24.8 mph /  39.9 km/h 32.3 mph /  52 km/h 72 % 0.0 in /  0 mm
14:50 8.5 °F /  -13.1 °C 1.0 °F /  -17.2 °C 1009.0 in /  34164.7 hPa WSW 14.8 mph /  23.8 km/h 32.3 mph /  52 km/h 58 % 0.0 in /  0 mm
14:55 8.5 °F /  -13.1 °C 1.0 °F /  -17.2 °C 1009.0 in /  34164.7 hPa West 20.9 mph /  33.6 km/h 28.0 mph /  45.1 km/h 58 % 0.0 in /  0 mm
15:00 8.5 °F /  -13.1 °C 1.0 °F /  -17.2 °C 1009.0 in /  34164.7 hPa West 12.6 mph /  20.3 km/h 23.8 mph /  38.3 km/h 58 % 0.0 in /  0 mm
15:05 8.5 °F /  -13.1 °C 1.0 °F /  -17.2 °C 1009.0 in /  34164.7 hPa West 17.2 mph /  27.7 km/h 23.3 mph /  37.5 km/h 58 % 0.0 in /  0 mm
15:10 8.5 °F /  -13.1 °C 1.0 °F /  -17.2 °C 1009.0 in /  34164.7 hPa West 16.6 mph /  26.7 km/h 21.2 mph /  34.1 km/h 58 % 0.0 in /  0 mm
15:15 8.5 °F /  -13.1 °C 1.0 °F /  -17.2 °C 1009.0 in /  34164.7 hPa WSW 16.9 mph /  27.2 km/h 24.8 mph /  39.9 km/h 58 % 0.0 in /  0 mm
15:20 8.5 °F /  -13.1 °C 1.0 °F /  -17.2 °C 1009.0 in /  34164.7 hPa WSW 16.9 mph /  27.2 km/h 24.8 mph /  39.9 km/h 58 % 0.0 in /  0 mm
15:25 8.5 °F /  -13.1 °C 1.0 °F /  -17.2 °C 1009.0 in /  34164.7 hPa West 15.4 mph /  24.8 km/h 24.8 mph /  39.9 km/h 58 % 0.0 in /  0 mm
15:30 8.5 °F /  -13.1 °C 1.0 °F /  -17.2 °C 1009.0 in /  34164.7 hPa West 16.9 mph /  27.2 km/h 24.5 mph /  39.4 km/h 58 % 0.0 in /  0 mm
15:35 8.5 °F /  -13.1 °C 1.0 °F /  -17.2 °C 1009.0 in /  34164.7 hPa WSW 12.2 mph /  19.6 km/h 24.5 mph /  39.4 km/h 58 % 0.0 in /  0 mm
15:40 8.5 °F /  -13.1 °C 1.0 °F /  -17.2 °C 1009.0 in /  34164.7 hPa West 11.1 mph /  17.9 km/h 19.8 mph /  31.9 km/h 58 % 0.0 in /  0 mm
15:45 8.5 °F /  -13.1 °C 1.0 °F /  -17.2 °C 1009.0 in /  34164.7 hPa West 16.6 mph /  26.7 km/h 24.8 mph /  39.9 km/h 58 % 0.0 in /  0 mm
15:50 8.0 °F /  -13.3 °C 1.0 °F /  -17.2 °C 1009.0 in /  34164.7 hPa WSW 15.4 mph /  24.8 km/h 24.8 mph /  39.9 km/h 59 % 0.0 in /  0 mm
15:55 8.0 °F /  -13.3 °C 1.0 °F /  -17.2 °C 1009.0 in /  34164.7 hPa WNW 24.5 mph /  39.4 km/h 27.4 mph /  44.1 km/h 59 % 0.0 in /  0 mm
16:00 8.0 °F /  -13.3 °C 1.0 °F /  -17.2 °C 1009.0 in /  34164.7 hPa West 15.4 mph /  24.8 km/h 27.4 mph /  44.1 km/h 59 % 0.0 in /  0 mm
16:05 8.0 °F /  -13.3 °C 1.0 °F /  -17.2 °C 1009.0 in /  34164.7 hPa West 16.9 mph /  27.2 km/h 23.8 mph /  38.3 km/h 59 % 0.0 in /  0 mm
16:10 8.0 °F /  -13.3 °C 1.0 °F /  -17.2 °C 1009.0 in /  34164.7 hPa West 11.1 mph /  17.9 km/h 23.8 mph /  38.3 km/h 59 % 0.0 in /  0 mm
16:15 7.6 °F /  -13.6 °C 0.0 °F /  -17.8 °C 1008.0 in /  34130.9 hPa West 13.7 mph /  22 km/h 23.8 mph /  38.3 km/h 58 % 0.0 in /  0 mm
16:20 7.6 °F /  -13.6 °C 0.0 °F /  -17.8 °C 1008.0 in /  34130.9 hPa West 10.5 mph /  16.9 km/h 21.2 mph /  34.1 km/h 58 % 0.0 in /  0 mm
16:25 7.3 °F /  -13.7 °C 0.0 °F /  -17.8 °C 1008.0 in /  34130.9 hPa WSW 8.7 mph /  14 km/h 13.7 mph /  22 km/h 61 % 0.0 in /  0 mm
16:30 7.3 °F /  -13.7 °C 0.0 °F /  -17.8 °C 1008.0 in /  34130.9 hPa WSW 10.5 mph /  16.9 km/h 17.7 mph /  28.5 km/h 61 % 0.0 in /  0 mm
16:35 7.3 °F /  -13.7 °C 0.0 °F /  -17.8 °C 1008.0 in /  34130.9 hPa NW 9.7 mph /  15.6 km/h 17.7 mph /  28.5 km/h 61 % 0.0 in /  0 mm
16:40 7.3 °F /  -13.7 °C 0.0 °F /  -17.8 °C 1008.0 in /  34130.9 hPa West 12.6 mph /  20.3 km/h 17.7 mph /  28.5 km/h 61 % 0.0 in /  0 mm
16:45 7.3 °F /  -13.7 °C 0.0 °F /  -17.8 °C 1008.0 in /  34130.9 hPa WNW 12.6 mph /  20.3 km/h 15.8 mph /  25.4 km/h 61 % 0.0 in /  0 mm
16:51 7.3 °F /  -13.7 °C 0.0 °F /  -17.8 °C 1008.0 in /  34130.9 hPa West 10.1 mph /  16.3 km/h 15.1 mph /  24.3 km/h 61 % 0.0 in /  0 mm
16:56 7.3 °F /  -13.7 °C 0.0 °F /  -17.8 °C 1008.0 in /  34130.9 hPa West 6.9 mph /  11.1 km/h 16.9 mph /  27.2 km/h 61 % 0.0 in /  0 mm
17:01 7.3 °F /  -13.7 °C 0.0 °F /  -17.8 °C 1009.0 in /  34164.7 hPa West 12.2 mph /  19.6 km/h 16.9 mph /  27.2 km/h 61 % 0.0 in /  0 mm
17:06 7.3 °F /  -13.7 °C 0.0 °F /  -17.8 °C 1009.0 in /  34164.7 hPa West 7.9 mph /  12.7 km/h 15.4 mph /  24.8 km/h 61 % 0.0 in /  0 mm
17:11 7.3 °F /  -13.7 °C 0.0 °F /  -17.8 °C 1009.0 in /  34164.7 hPa West 1.8 mph /  2.9 km/h 13.0 mph /  20.9 km/h 61 % 0.0 in /  0 mm
17:16 7.3 °F /  -13.7 °C 0.0 °F /  -17.8 °C 1009.0 in /  34164.7 hPa West 10.1 mph /  16.3 km/h 11.6 mph /  18.7 km/h 61 % 0.0 in /  0 mm
17:21 7.3 °F /  -13.7 °C 0.0 °F /  -17.8 °C 1009.0 in /  34164.7 hPa WSW 9.3 mph /  15 km/h 16.3 mph /  26.2 km/h 61 % 0.0 in /  0 mm
17:26 7.3 °F /  -13.7 °C 0.0 °F /  -17.8 °C 1009.0 in /  34164.7 hPa West 7.9 mph /  12.7 km/h 16.3 mph /  26.2 km/h 61 % 0.0 in /  0 mm
17:31 4.6 °F /  -15.2 °C 0.0 °F /  -17.8 °C 1009.0 in /  34164.7 hPa WSW 9.3 mph /  15 km/h 10.5 mph /  16.9 km/h 72 % 0.0 in /  0 mm
17:36 4.4 °F /  -15.3 °C 0.0 °F /  -17.8 °C 1009.0 in /  34164.7 hPa West 11.6 mph /  18.7 km/h 12.6 mph /  20.3 km/h 73 % 0.0 in /  0 mm
17:41 4.4 °F /  -15.3 °C 0.0 °F /  -17.8 °C 1009.0 in /  34164.7 hPa WSW 9.7 mph /  15.6 km/h 12.6 mph /  20.3 km/h 74 % 0.0 in /  0 mm
17:46 4.2 °F /  -15.4 °C 0.0 °F /  -17.8 °C 1009.0 in /  34164.7 hPa WSW 5.5 mph /  8.9 km/h 12.2 mph /  19.6 km/h 74 % 0.0 in /  0 mm
17:51 4.0 °F /  -15.6 °C 0.0 °F /  -17.8 °C 1009.0 in /  34164.7 hPa WSW 10.5 mph /  16.9 km/h 10.5 mph /  16.9 km/h 75 % 0.0 in /  0 mm
17:56 3.9 °F /  -15.6 °C 0.0 °F /  -17.8 °C 1009.0 in /  34164.7 hPa SW 9.0 mph /  14.5 km/h 10.5 mph /  16.9 km/h 76 % 0.0 in /  0 mm
18:01 3.8 °F /  -15.7 °C 0.0 °F /  -17.8 °C 1009.0 in /  34164.7 hPa SSW 5.8 mph /  9.3 km/h 10.5 mph /  16.9 km/h 76 % 0.0 in /  0 mm
18:06 3.7 °F /  -15.7 °C 0.0 °F /  -17.8 °C 1009.0 in /  34164.7 hPa SW 5.0 mph /  8 km/h 9.0 mph /  14.5 km/h 77 % 0.0 in /  0 mm
18:11 3.7 °F /  -15.7 °C 0.0 °F /  -17.8 °C 1009.0 in /  34164.7 hPa SSW 8.7 mph /  14 km/h 8.7 mph /  14 km/h 77 % 0.0 in /  0 mm
18:16 3.7 °F /  -15.7 °C 0.0 °F /  -17.8 °C 1009.0 in /  34164.7 hPa WSW 7.9 mph /  12.7 km/h 9.7 mph /  15.6 km/h 77 % 0.0 in /  0 mm
18:21 3.7 °F /  -15.7 °C 0.0 °F /  -17.8 °C 1009.0 in /  34164.7 hPa WSW 5.8 mph /  9.3 km/h 9.7 mph /  15.6 km/h 77 % 0.0 in /  0 mm
18:26 3.7 °F /  -15.7 °C 0.0 °F /  -17.8 °C 1009.0 in /  34164.7 hPa Calm   9.7 mph /  15.6 km/h 77 % 0.0 in /  0 mm
18:31 3.7 °F /  -15.7 °C 0.0 °F /  -17.8 °C 1009.0 in /  34164.7 hPa Calm   6.4 mph /  10.3 km/h 77 % 0.0 in /  0 mm
18:36 3.7 °F /  -15.7 °C 0.0 °F /  -17.8 °C 1009.0 in /  34164.7 hPa Calm   5.5 mph /  8.9 km/h 77 % 0.0 in /  0 mm
18:41 3.7 °F /  -15.7 °C 0.0 °F /  -17.8 °C 1009.0 in /  34164.7 hPa Calm     77 % 0.0 in /  0 mm
18:46 3.7 °F /  -15.7 °C 0.0 °F /  -17.8 °C 1009.0 in /  34164.7 hPa Calm     77 % 0.0 in /  0 mm
18:51 3.7 °F /  -15.7 °C 0.0 °F /  -17.8 °C 1009.0 in /  34164.7 hPa Calm     77 % 0.0 in /  0 mm
18:56 3.7 °F /  -15.7 °C 0.0 °F /  -17.8 °C 1009.0 in /  34164.7 hPa Calm   6.1 mph /  9.8 km/h 77 % 0.0 in /  0 mm
19:01 3.7 °F /  -15.7 °C 0.0 °F /  -17.8 °C 1009.0 in /  34164.7 hPa WSW 1.4 mph /  2.3 km/h 6.4 mph /  10.3 km/h 77 % 0.0 in /  0 mm
19:06 3.7 °F /  -15.7 °C 0.0 °F /  -17.8 °C 1009.0 in /  34164.7 hPa Calm   9.3 mph /  15 km/h 77 % 0.0 in /  0 mm
19:11 3.7 °F /  -15.7 °C 0.0 °F /  -17.8 °C 1009.0 in /  34164.7 hPa Calm   9.3 mph /  15 km/h 77 % 0.0 in /  0 mm
19:16 3.7 °F /  -15.7 °C 0.0 °F /  -17.8 °C 1010.0 in /  34198.6 hPa Calm   9.0 mph /  14.5 km/h 77 % 0.0 in /  0 mm
19:21 3.7 °F /  -15.7 °C 0.0 °F /  -17.8 °C 1010.0 in /  34198.6 hPa Calm   9.0 mph /  14.5 km/h 77 % 0.0 in /  0 mm
19:26 3.7 °F /  -15.7 °C 0.0 °F /  -17.8 °C 1010.0 in /  34198.6 hPa Calm     77 % 0.0 in /  0 mm
19:31 3.7 °F /  -15.7 °C 0.0 °F /  -17.8 °C 1009.0 in /  34164.7 hPa Calm     77 % 0.0 in /  0 mm
19:36 3.7 °F /  -15.7 °C 0.0 °F /  -17.8 °C 1009.0 in /  34164.7 hPa Calm   7.2 mph /  11.6 km/h 77 % 0.0 in /  0 mm
19:42 2.0 °F /  -16.7 °C 0.0 °F /  -17.8 °C 1009.0 in /  34164.7 hPa Calm   7.2 mph /  11.6 km/h 84 % 0.0 in /  0 mm
19:47 2.0 °F /  -16.7 °C 0.0 °F /  -17.8 °C 1009.0 in /  34164.7 hPa Calm     84 % 0.0 in /  0 mm
19:52 2.2 °F /  -16.6 °C 0.0 °F /  -17.8 °C 1009.0 in /  34164.7 hPa Calm     86 % 0.0 in /  0 mm
19:57 2.2 °F /  -16.6 °C 0.0 °F /  -17.8 °C 1009.0 in /  34164.7 hPa SSW 6.4 mph /  10.3 km/h 6.4 mph /  10.3 km/h 86 % 0.0 in /  0 mm
20:02 2.4 °F /  -16.4 °C 1.0 °F /  -17.2 °C 1009.0 in /  34164.7 hPa Calm   6.4 mph /  10.3 km/h 87 % 0.0 in /  0 mm
20:07 2.4 °F /  -16.4 °C 1.0 °F /  -17.2 °C 1009.0 in /  34164.7 hPa Calm   6.1 mph /  9.8 km/h 86 % 0.0 in /  0 mm
20:12 2.3 °F /  -16.5 °C 1.0 °F /  -17.2 °C 1009.0 in /  34164.7 hPa SSW 3.5 mph /  5.6 km/h 4.0 mph /  6.4 km/h 86 % 0.0 in /  0 mm
20:17 2.2 °F /  -16.6 °C 0.0 °F /  -17.8 °C 1009.0 in /  34164.7 hPa Calm   4.0 mph /  6.4 km/h 86 % 0.0 in /  0 mm
20:22 2.1 °F /  -16.6 °C 0.0 °F /  -17.8 °C 1009.0 in /  34164.7 hPa Calm   3.5 mph /  5.6 km/h 86 % 0.0 in /  0 mm
20:27 2.1 °F /  -16.6 °C 0.0 °F /  -17.8 °C 1009.0 in /  34164.7 hPa South 4.3 mph /  6.9 km/h 4.3 mph /  6.9 km/h 86 % 0.0 in /  0 mm
20:32 2.1 °F /  -16.6 °C 0.0 °F /  -17.8 °C 1010.0 in /  34198.6 hPa Calm   5.5 mph /  8.9 km/h 86 % 0.0 in /  0 mm
20:37 2.1 °F /  -16.6 °C 1.0 °F /  -17.2 °C 1010.0 in /  34198.6 hPa Calm   5.5 mph /  8.9 km/h 87 % 0.0 in /  0 mm
20:42 2.0 °F /  -16.7 °C 1.0 °F /  -17.2 °C 1010.0 in /  34198.6 hPa SSW 1.4 mph /  2.3 km/h 5.8 mph /  9.3 km/h 87 % 0.0 in /  0 mm
20:47 2.0 °F /  -16.7 °C 1.0 °F /  -17.2 °C 1009.0 in /  34164.7 hPa SSW 5.8 mph /  9.3 km/h 5.8 mph /  9.3 km/h 87 % 0.0 in /  0 mm
20:52 2.1 °F /  -16.6 °C 1.0 °F /  -17.2 °C 1009.0 in /  34164.7 hPa Calm   6.9 mph /  11.1 km/h 87 % 0.0 in /  0 mm
20:57 2.3 °F /  -16.5 °C 1.0 °F /  -17.2 °C 1009.0 in /  34164.7 hPa Calm   6.9 mph /  11.1 km/h 88 % 0.0 in /  0 mm
21:02 2.4 °F /  -16.4 °C 1.0 °F /  -17.2 °C 1009.0 in /  34164.7 hPa SSW 7.9 mph /  12.7 km/h 10.1 mph /  16.3 km/h 88 % 0.0 in /  0 mm
21:07 2.6 °F /  -16.3 °C 1.0 °F /  -17.2 °C 1009.0 in /  34164.7 hPa Calm   12.2 mph /  19.6 km/h 89 % 0.0 in /  0 mm
21:12 2.6 °F /  -16.3 °C 1.0 °F /  -17.2 °C 1009.0 in /  34164.7 hPa Calm   12.2 mph /  19.6 km/h 89 % 0.0 in /  0 mm
21:17 2.6 °F /  -16.3 °C 1.0 °F /  -17.2 °C 1009.0 in /  34164.7 hPa Calm   9.0 mph /  14.5 km/h 89 % 0.0 in /  0 mm
21:22 2.4 °F /  -16.4 °C 1.0 °F /  -17.2 °C 1009.0 in /  34164.7 hPa WSW 7.6 mph /  12.2 km/h 7.9 mph /  12.7 km/h 88 % 0.0 in /  0 mm
21:27 2.3 °F /  -16.5 °C 1.0 °F /  -17.2 °C 1009.0 in /  34164.7 hPa WSW 9.7 mph /  15.6 km/h 9.7 mph /  15.6 km/h 88 % 0.0 in /  0 mm
21:32 2.4 °F /  -16.4 °C 1.0 °F /  -17.2 °C 1010.0 in /  34198.6 hPa Calm   9.7 mph /  15.6 km/h 89 % 0.0 in /  0 mm
21:37 2.5 °F /  -16.4 °C 1.0 °F /  -17.2 °C 1010.0 in /  34198.6 hPa Calm   9.7 mph /  15.6 km/h 89 % 0.0 in /  0 mm
21:42 2.5 °F /  -16.4 °C 1.0 °F /  -17.2 °C 1010.0 in /  34198.6 hPa Calm   6.9 mph /  11.1 km/h 89 % 0.0 in /  0 mm
21:47 2.5 °F /  -16.4 °C 1.0 °F /  -17.2 °C 1010.0 in /  34198.6 hPa Calm   6.4 mph /  10.3 km/h 89 % 0.0 in /  0 mm
21:52 2.4 °F /  -16.4 °C 1.0 °F /  -17.2 °C 1010.0 in /  34198.6 hPa Calm   7.2 mph /  11.6 km/h 89 % 0.0 in /  0 mm
21:57 2.3 °F /  -16.5 °C 1.0 °F /  -17.2 °C 1010.0 in /  34198.6 hPa Calm   7.2 mph /  11.6 km/h 88 % 0.0 in /  0 mm
22:02 2.3 °F /  -16.5 °C 1.0 °F /  -17.2 °C 1010.0 in /  34198.6 hPa Calm   6.9 mph /  11.1 km/h 89 % 0.0 in /  0 mm
22:07 2.1 °F /  -16.6 °C 1.0 °F /  -17.2 °C 1010.0 in /  34198.6 hPa SSW 6.1 mph /  9.8 km/h 6.9 mph /  11.1 km/h 88 % 0.0 in /  0 mm
22:13 2.2 °F /  -16.6 °C 1.0 °F /  -17.2 °C 1010.0 in /  34198.6 hPa SSW 5.5 mph /  8.9 km/h 7.9 mph /  12.7 km/h 89 % 0.0 in /  0 mm
22:18 2.2 °F /  -16.6 °C 1.0 °F /  -17.2 °C 1010.0 in /  34198.6 hPa Calm   7.9 mph /  12.7 km/h 89 % 0.0 in /  0 mm
22:23 2.2 °F /  -16.6 °C 1.0 °F /  -17.2 °C 1010.0 in /  34198.6 hPa West 4.3 mph /  6.9 km/h 6.9 mph /  11.1 km/h 90 % 0.0 in /  0 mm
22:28 2.1 °F /  -16.6 °C 1.0 °F /  -17.2 °C 1010.0 in /  34198.6 hPa Calm   4.3 mph /  6.9 km/h 90 % 0.0 in /  0 mm
22:33 2.0 °F /  -16.7 °C 1.0 °F /  -17.2 °C 1010.0 in /  34198.6 hPa Calm   3.5 mph /  5.6 km/h 89 % 0.0 in /  0 mm
22:38 1.9 °F /  -16.7 °C 1.0 °F /  -17.2 °C 1010.0 in /  34198.6 hPa Calm     89 % 0.0 in /  0 mm
22:43 1.7 °F /  -16.8 °C 0.0 °F /  -17.8 °C 1010.0 in /  34198.6 hPa Calm     89 % 0.0 in /  0 mm
22:48 1.5 °F /  -16.9 °C 0.0 °F /  -17.8 °C 1010.0 in /  34198.6 hPa Calm     89 % 0.0 in /  0 mm
22:53 1.3 °F /  -17.1 °C 0.0 °F /  -17.8 °C 1010.0 in /  34198.6 hPa Calm     88 % 0.0 in /  0 mm
22:58 1.1 °F /  -17.2 °C -1.0 °F /  -18.3 °C 1010.0 in /  34198.6 hPa Calm     88 % 0.0 in /  0 mm
23:03 1.0 °F /  -17.2 °C -1.0 °F /  -18.3 °C 1010.0 in /  34198.6 hPa Calm     88 % 0.0 in /  0 mm
23:08 0.8 °F /  -17.3 °C 0.0 °F /  -17.8 °C 1010.0 in /  34198.6 hPa Calm     89 % 0.0 in /  0 mm
23:13 0.7 °F /  -17.4 °C -1.0 °F /  -18.3 °C 1010.0 in /  34198.6 hPa Calm     89 % 0.0 in /  0 mm
23:18 0.6 °F /  -17.4 °C -1.0 °F /  -18.3 °C 1010.0 in /  34198.6 hPa Calm     89 % 0.0 in /  0 mm
23:23 0.5 °F /  -17.5 °C -1.0 °F /  -18.3 °C 1010.0 in /  34198.6 hPa Calm     90 % 0.0 in /  0 mm
23:28 0.4 °F /  -17.6 °C -1.0 °F /  -18.3 °C 1010.0 in /  34198.6 hPa Calm     90 % 0.0 in /  0 mm
23:33 0.3 °F /  -17.6 °C -1.0 °F /  -18.3 °C 1010.0 in /  34198.6 hPa Calm     90 % 0.0 in /  0 mm
23:38 0.4 °F /  -17.6 °C -1.0 °F /  -18.3 °C 1010.0 in /  34198.6 hPa Calm     91 % 0.0 in /  0 mm
23:43 0.5 °F /  -17.5 °C 0.0 °F /  -17.8 °C 1010.0 in /  34198.6 hPa Calm     91 % 0.0 in /  0 mm
23:48 0.6 °F /  -17.4 °C 0.0 °F /  -17.8 °C 1010.0 in /  34198.6 hPa Calm     92 % 0.0 in /  0 mm
23:53 0.7 °F /  -17.4 °C 0.0 °F /  -17.8 °C 1010.0 in /  34198.6 hPa Calm     92 % 0.0 in /  0 mm
23:58 0.7 °F /  -17.4 °C 0.0 °F /  -17.8 °C 1010.0 in /  34198.6 hPa Calm     93 % 0.0 in /  0 mm
Le Gheer Warneton
Courtoisie de Weather Underground - 2.25 mb

Mise a jour : 24/02/2018 22:32:11
Généré par Cumulus 1.9.4 (1099)